Airfield :
LOGIN :

Register | Disclaimer

   EN    FR    IT 

 










Legend :    VFR   Marginal VFR   IFR   Intensive IFR   Very Intensive IFR
Visi :
Ceiling :
>= 8 km
>= 3000ft
5 to 8 km
1000 to 3000 ft
1500m to 5 km
500 to 1000 ft
800 to 1500m
200 to 500 ft
< 800m
< 200 ft
Symbols :   Thunderstorms  Fog  Heavy snow  Heavy precipitations  Wind > 20 kt
SIGMETs :     Misc.  Thunderstorms  Icing  Turbulence  Mountain Waves  Volcanic Ashes







- Airport Elevation : 588 ft
- IATA code : DME


UUDD - Domodedovo International

CURRENT METAR :
  • 210700Z 29007MPS 0800 0650S R32L/0650N R32R/1400D +SHSN VV005 M02/M03 Q0994 R32L/590592 R32R/590392 TEMPO 0500 +SHSN SCT010CB

EXPIRED METARs :
  • 210630Z 28006MPS 1800 1300S R32L/1300D R32R/P2000 SHSN BKN005 BKN023CB M02/M03 Q0994 R88/590392 TEMPO 0800 +SHSN
  • 210600Z 27005MPS 1900 1200E R32L/1700N R32R/1200 SHSN BKN005 BKN020CB M02/M03 Q0994 R88/590392 TEMPO 0800 +SHSN
  • 210530Z 27005MPS 0600 0500S R32L/0700U R32R/0600D +SHSN VV002 M02/M03 Q0994 R88/590392 TEMPO 0300 +SHSN
  • 210500Z 27005MPS 1200 0900S R32L/0900U R32R/1100N +SHSN BKN005 BKN020CB M02/M03 Q0994 R88/590392 TEMPO 0500 +SHSN
  • 210430Z 27006MPS 1100 0800S R32L/1000N R32R/1100N +SHSN BKN005 BKN023CB M01/M02 Q0993 R32L/590392 R32R/590293 TEMPO 0500 +SHSN

TAF AMD TAF UUDD
Valid from the 21 at 07:00 until the 22 at 12:00 UTC


210716Z 2107/2212 29009G16MPS 1500 SN FEW005 OVC011 TXM02/2108Z TNM12/2205Z
TEMPO 2107/2112 0500 +SHSN BLSN BKN004 SCT012CB
BECMG 2112/2114 35011G18MPS 3100 -SN
TEMPO 2114/2209 0700 +SHSN BLSN SCT005 BKN012CB
No reported NOTAMs for that airfield.
2 SIGMETs reported for the Moscow FIR (UUWV) :
 
Severe turbulence
UUWV SIGMET 2 VALID 210700/211100 UUWV
UUWV MOSCOW FIR SEV TURB FCST SW OF LINE N5836 E03548 - N5011 E04150 SFC/FL110 STNR NC=
Severe turbulence
UUWV SIGMET 1 VALID 210330/210700 UUWV
UUWV MOSCOW FIR SEV TURB FCST NW OF LINE N5100 E03520 - N5810 E04656 SFC/FL110 MOV SE 20KMH NC=



MET'MAP, your aeronautical weather chart ! - Copyright ORBIFLY December 2007 - Disclaimer

ORBIFLY MET'MAP TEAM :

Programming & Development : Alexandra Zaïnal
Concept & Development : Baudouin d'Aumeries
Co-Development & Prog : Marc-Olivier Méhu
Technical & hardware support : Manuel Goepfert

Contact : metmap@orbifly.com




SOURCES & CREDITS :

   NOAA